createdAt,value
2022-10-12T00:00:56.965Z,29.83
2022-10-12T00:03:23.687Z,31.63
2022-10-12T00:06:01.956Z,29.70
2022-10-12T00:08:29.256Z,26.92
2022-10-12T00:10:55.797Z,28.25
2022-10-12T00:13:22.375Z,27.00
2022-10-12T00:15:49.515Z,28.35
2022-10-12T00:18:16.094Z,23.10
2022-10-12T00:20:42.650Z,27.02
2022-10-12T00:23:09.157Z,26.23
2022-10-12T00:25:37.756Z,24.15
2022-10-12T00:28:04.817Z,24.65
2022-10-12T00:30:31.352Z,24.00
2022-10-12T00:32:58.128Z,19.52
2022-10-12T00:35:25.148Z,20.00
2022-10-12T00:37:55.469Z,20.85
2022-10-12T00:40:23.225Z,19.33
2022-10-12T00:42:49.712Z,20.60
2022-10-12T00:45:16.522Z,20.02
2022-10-12T00:47:56.597Z,19.20
2022-10-12T00:53:05.738Z,21.77
2022-10-12T00:55:41.622Z,18.13
2022-10-12T00:58:09.056Z,17.40
2022-10-12T01:00:36.876Z,21.60
2022-10-12T01:03:04.603Z,21.05
2022-10-12T01:05:31.111Z,16.40
2022-10-12T01:07:59.723Z,23.35
2022-10-12T01:10:26.843Z,19.40
2022-10-12T01:12:53.407Z,20.92
2022-10-12T01:15:20.038Z,20.02
2022-10-12T01:18:19.776Z,19.42
2022-10-12T01:20:52.229Z,18.58
2022-10-12T01:23:36.244Z,23.88
2022-10-12T01:26:08.575Z,18.15
2022-10-12T01:28:50.275Z,19.85
2022-10-12T01:31:35.346Z,19.55
2022-10-12T01:34:20.237Z,16.15
2022-10-12T01:36:57.900Z,19.25
2022-10-12T01:39:44.741Z,20.05
2022-10-12T01:42:17.847Z,17.42
2022-10-12T01:44:44.421Z,18.67
2022-10-12T01:47:11.015Z,18.25
2022-10-12T01:49:38.052Z,17.88
2022-10-12T01:52:19.228Z,20.25
2022-10-12T01:55:15.811Z,20.25
2022-10-12T01:58:19.767Z,24.58
2022-10-12T02:01:13.142Z,17.15
2022-10-12T02:04:02.499Z,17.88
2022-10-12T02:06:37.456Z,15.30
2022-10-12T02:09:09.686Z,19.02
2022-10-12T02:11:39.583Z,20.50
2022-10-12T02:14:18.682Z,21.17
2022-10-12T02:16:58.111Z,16.80
2022-10-12T02:19:32.493Z,16.75
2022-10-12T02:22:04.647Z,16.80
2022-10-12T02:24:33.508Z,18.58
2022-10-12T02:27:01.371Z,21.05
2022-10-12T02:29:35.826Z,18.08
2022-10-12T02:32:43.993Z,19.08
2022-10-12T02:35:22.955Z,21.05
2022-10-12T02:38:02.018Z,17.58
2022-10-12T02:40:55.544Z,16.02
2022-10-12T02:43:43.902Z,18.55
2022-10-12T02:46:11.602Z,19.02
2022-10-12T02:48:40.172Z,19.35
2022-10-12T02:51:09.173Z,20.40
2022-10-12T02:53:36.025Z,22.55
2022-10-12T02:56:11.668Z,18.88
2022-10-12T02:58:38.656Z,18.98
2022-10-12T03:01:05.748Z,16.58
2022-10-12T03:03:32.321Z,25.08
2022-10-12T03:05:58.801Z,19.58
2022-10-12T03:08:25.285Z,21.60
2022-10-12T03:10:51.838Z,18.85
2022-10-12T03:13:18.353Z,20.48
2022-10-12T03:15:44.936Z,18.42
2022-10-12T03:18:11.488Z,17.23
2022-10-12T03:20:37.945Z,17.73
2022-10-12T03:23:04.469Z,18.15
2022-10-12T03:25:31.128Z,16.95
2022-10-12T03:27:58.731Z,17.42
2022-10-12T03:30:25.219Z,21.80
2022-10-12T03:32:51.748Z,19.38
2022-10-12T03:35:18.250Z,17.38
2022-10-12T03:37:44.705Z,17.23
2022-10-12T03:40:11.650Z,16.63
2022-10-12T03:42:38.170Z,16.45
2022-10-12T03:45:05.061Z,21.17
2022-10-12T03:47:31.534Z,17.58
2022-10-12T03:49:58.077Z,17.40
2022-10-12T03:52:24.533Z,22.65
2022-10-12T03:54:51.001Z,18.35
2022-10-12T03:57:17.482Z,24.70
2022-10-12T03:59:43.981Z,17.23
2022-10-12T04:02:15.828Z,17.92
2022-10-12T04:04:43.725Z,16.00
2022-10-12T04:07:10.358Z,18.98
2022-10-12T04:09:36.832Z,14.82
2022-10-12T04:12:03.328Z,16.25
2022-10-12T04:14:29.922Z,16.25
2022-10-12T04:16:56.606Z,17.25
2022-10-12T04:19:23.090Z,16.30
2022-10-12T04:21:49.534Z,17.98
2022-10-12T04:24:16.068Z,15.52
2022-10-12T04:26:42.524Z,14.73
2022-10-12T04:29:11.192Z,18.67
2022-10-12T04:31:37.797Z,15.30
2022-10-12T04:34:04.294Z,15.43
2022-10-12T04:36:30.955Z,15.15
2022-10-12T04:39:01.033Z,18.50
2022-10-12T04:41:28.287Z,14.10
2022-10-12T04:43:54.860Z,15.65
2022-10-12T04:46:21.825Z,17.80
2022-10-12T04:48:48.304Z,14.50
2022-10-12T04:51:14.753Z,16.33
2022-10-12T04:53:41.304Z,16.73
2022-10-12T04:56:08.115Z,16.30
2022-10-12T04:58:34.876Z,15.65
2022-10-12T05:01:01.388Z,18.67
2022-10-12T05:03:27.963Z,22.15
2022-10-12T05:05:54.413Z,16.42
2022-10-12T05:08:20.942Z,19.42
2022-10-12T05:10:47.483Z,18.95
2022-10-12T05:13:14.606Z,15.38
2022-10-12T05:15:42.742Z,16.40
2022-10-12T05:18:09.207Z,20.92
2022-10-12T05:20:36.049Z,15.35
2022-10-12T05:23:02.597Z,14.60
2022-10-12T05:25:31.866Z,14.80
2022-10-12T05:27:58.357Z,19.67
2022-10-12T05:30:24.940Z,19.40
2022-10-12T05:32:51.404Z,19.17
2022-10-12T05:35:17.945Z,16.88
2022-10-12T05:37:44.494Z,17.52
2022-10-12T05:40:11.089Z,16.52
2022-10-12T05:42:37.934Z,17.33
2022-10-12T05:45:05.261Z,17.17
2022-10-12T05:47:31.795Z,17.58
2022-10-12T05:49:58.264Z,15.15
2022-10-12T05:52:24.767Z,17.30
2022-10-12T05:54:51.251Z,17.33
2022-10-12T05:57:17.841Z,18.73
2022-10-12T05:59:44.346Z,17.10
2022-10-12T06:02:15.799Z,13.65
2022-10-12T06:04:42.782Z,14.23
2022-10-12T06:07:09.546Z,21.95
2022-10-12T06:09:39.013Z,16.23
2022-10-12T06:12:07.024Z,18.70
2022-10-12T06:14:33.588Z,15.80
2022-10-12T06:17:00.163Z,20.40
2022-10-12T06:19:26.640Z,16.30
2022-10-12T06:21:53.092Z,17.27
2022-10-12T06:24:19.653Z,17.45
2022-10-12T06:26:46.112Z,15.38
2022-10-12T06:29:12.625Z,17.27
2022-10-12T06:31:39.957Z,20.90
2022-10-12T06:34:06.667Z,16.13
2022-10-12T06:36:33.167Z,14.07
2022-10-12T06:38:59.630Z,18.58
2022-10-12T06:41:26.118Z,13.60
2022-10-12T06:43:52.624Z,17.70
2022-10-12T06:46:19.107Z,18.80
2022-10-12T06:48:45.587Z,19.13
2022-10-12T06:51:12.078Z,13.68
2022-10-12T06:53:38.572Z,16.30
2022-10-12T06:56:07.220Z,12.85
2022-10-12T06:58:33.772Z,13.55
2022-10-12T07:01:08.434Z,14.27
2022-10-12T07:03:35.036Z,14.35
2022-10-12T07:06:09.835Z,16.48
2022-10-12T07:08:36.660Z,16.00
2022-10-12T07:11:07.975Z,13.63
2022-10-12T07:13:34.759Z,16.63
2022-10-12T07:16:01.488Z,13.77
2022-10-12T07:18:27.977Z,16.27
2022-10-12T07:20:58.549Z,15.00
2022-10-12T07:23:25.627Z,14.48
2022-10-12T07:25:53.386Z,13.20
2022-10-12T07:28:20.739Z,11.95
2022-10-12T07:30:48.168Z,12.13
2022-10-12T07:33:14.699Z,15.38
2022-10-12T07:36:03.365Z,14.07
2022-10-12T07:38:27.805Z,14.43
2022-10-12T07:40:54.448Z,14.50
2022-10-12T07:43:20.957Z,15.50
2022-10-12T07:45:47.471Z,17.67
2022-10-12T07:48:13.953Z,12.30
2022-10-12T07:50:40.429Z,17.02
2022-10-12T07:53:06.940Z,17.23
2022-10-12T07:55:33.567Z,13.68
2022-10-12T07:58:00.244Z,13.38
2022-10-12T08:00:27.939Z,15.90
2022-10-12T08:02:54.494Z,14.82
2022-10-12T08:05:21.371Z,12.00
2022-10-12T08:07:49.376Z,14.63
2022-10-12T08:10:17.525Z,13.80
2022-10-12T08:12:48.478Z,14.00
2022-10-12T08:15:18.460Z,15.00
2022-10-12T08:17:44.951Z,11.38
2022-10-12T08:20:11.660Z,13.13
2022-10-12T08:22:38.181Z,12.02
2022-10-12T08:25:05.399Z,16.23
2022-10-12T08:27:31.988Z,12.70
2022-10-12T08:29:58.606Z,14.90
2022-10-12T08:32:25.500Z,15.10
2022-10-12T08:34:52.068Z,14.82
2022-10-12T08:37:18.563Z,11.80
2022-10-12T08:39:45.035Z,13.35
2022-10-12T08:42:16.504Z,17.33
2022-10-12T08:44:58.761Z,11.55
2022-10-12T08:47:30.020Z,11.50
2022-10-12T08:49:56.789Z,15.50
2022-10-12T08:52:33.687Z,12.60
2022-10-12T08:55:34.984Z,13.57
2022-10-12T08:58:02.275Z,14.63
2022-10-12T09:03:15.510Z,12.88
2022-10-12T09:06:11.659Z,16.42
2022-10-12T09:08:44.153Z,14.77
2022-10-12T09:11:32.766Z,15.40
2022-10-12T09:14:23.765Z,13.45
2022-10-12T09:16:51.901Z,16.55
2022-10-12T09:19:34.842Z,12.98
2022-10-12T09:22:03.258Z,15.23
2022-10-12T09:24:36.082Z,12.00
2022-10-12T09:27:14.835Z,13.10
2022-10-12T09:29:45.002Z,12.23
2022-10-12T09:32:59.063Z,12.77
2022-10-12T09:35:25.622Z,14.65
2022-10-12T09:37:53.853Z,13.35
2022-10-12T09:40:25.183Z,12.15
2022-10-12T09:42:53.719Z,13.43
2022-10-12T09:45:22.656Z,14.35
2022-10-12T09:48:28.155Z,12.10
2022-10-12T09:50:58.724Z,17.15
2022-10-12T09:53:40.512Z,12.68
2022-10-12T09:56:27.663Z,12.30
2022-10-12T09:58:58.734Z,12.95
2022-10-12T10:01:30.446Z,13.07
2022-10-12T10:04:11.814Z,12.90
2022-10-12T10:06:40.853Z,15.00
2022-10-12T10:09:36.262Z,15.63
2022-10-12T10:12:13.739Z,14.77
2022-10-12T10:14:43.870Z,13.93
2022-10-12T10:17:15.670Z,15.05
2022-10-12T10:19:49.331Z,13.35
2022-10-12T10:22:16.530Z,12.20
2022-10-12T10:24:43.269Z,12.15
2022-10-12T10:27:28.240Z,12.65
2022-10-12T10:30:28.579Z,14.68
2022-10-12T10:33:11.877Z,15.48
2022-10-12T10:35:38.515Z,12.40
2022-10-12T10:38:05.131Z,13.13
2022-10-12T10:40:33.405Z,15.35
2022-10-12T10:43:06.521Z,12.45
2022-10-12T10:45:40.711Z,15.02
2022-10-12T10:48:15.755Z,20.70
2022-10-12T10:50:44.750Z,13.57
2022-10-12T10:53:25.730Z,15.50
2022-10-12T10:56:03.212Z,13.98
2022-10-12T10:58:38.395Z,13.80
2022-10-12T11:01:20.689Z,13.02
2022-10-12T11:03:57.418Z,12.80
2022-10-12T11:06:31.936Z,12.77
2022-10-12T11:09:16.069Z,12.50
2022-10-12T11:11:46.137Z,13.48
2022-10-12T11:14:19.533Z,13.02
2022-10-12T11:16:45.929Z,14.25
2022-10-12T11:19:29.613Z,13.05
2022-10-12T11:22:00.794Z,12.73
2022-10-12T11:24:35.887Z,12.93
2022-10-12T11:27:10.636Z,14.88
2022-10-12T11:29:38.136Z,13.52
2022-10-12T11:32:23.021Z,12.00
2022-10-12T11:34:59.908Z,12.15
2022-10-12T11:37:50.734Z,12.32
2022-10-12T11:40:41.556Z,13.02
2022-10-12T11:43:19.535Z,11.07
2022-10-12T11:45:50.487Z,11.82
2022-10-12T11:48:27.123Z,11.65
2022-10-12T11:51:01.315Z,10.38
2022-10-12T11:53:45.381Z,11.93
2022-10-12T11:56:20.907Z,10.30
2022-10-12T11:59:04.512Z,12.73
2022-10-12T12:01:55.862Z,11.82
2022-10-12T12:07:48.963Z,10.57
2022-10-12T12:10:27.872Z,11.35
2022-10-12T12:13:13.312Z,10.50
2022-10-12T12:16:02.808Z,11.20
2022-10-12T12:18:33.974Z,25.25
2022-10-12T12:21:09.374Z,20.75
2022-10-12T12:23:40.409Z,14.30
2022-10-12T12:26:15.701Z,14.30
2022-10-12T12:28:48.505Z,13.77
2022-10-12T12:31:18.083Z,17.45
2022-10-12T12:33:48.085Z,14.05
2022-10-12T12:36:28.630Z,16.05
2022-10-12T12:38:55.907Z,15.88
2022-10-12T12:41:27.584Z,13.57
2022-10-12T12:43:59.409Z,12.85
2022-10-12T12:46:47.361Z,12.80
2022-10-12T12:49:46.154Z,14.02
2022-10-12T12:52:26.485Z,12.63
2022-10-12T12:55:07.986Z,12.43
2022-10-12T12:57:57.532Z,11.98
2022-10-12T13:00:26.419Z,18.08
2022-10-12T13:02:55.570Z,19.13
2022-10-12T13:06:09.505Z,16.35
2022-10-12T13:08:41.949Z,14.32
2022-10-12T13:11:36.728Z,15.40
2022-10-12T13:14:05.938Z,12.50
2022-10-12T13:17:30.204Z,13.80
2022-10-12T13:19:25.882Z,16.85
2022-10-12T13:21:55.573Z,13.35
2022-10-12T13:25:03.961Z,12.68
2022-10-12T13:27:52.952Z,14.13
2022-10-12T13:30:28.540Z,12.77
2022-10-12T13:33:02.072Z,16.13
2022-10-12T13:35:38.620Z,12.65
2022-10-12T13:38:14.020Z,14.15
2022-10-12T13:40:44.774Z,16.17
2022-10-12T13:43:40.325Z,13.45
2022-10-12T13:46:07.199Z,12.75
2022-10-12T13:48:58.148Z,13.13
2022-10-12T13:51:24.133Z,13.38
2022-10-12T13:53:50.637Z,11.82
2022-10-12T13:56:30.091Z,12.48
2022-10-12T13:59:05.345Z,13.07
2022-10-12T14:01:48.140Z,7.70
2022-10-12T14:04:14.753Z,12.82
2022-10-12T14:06:41.246Z,6.40
2022-10-12T14:09:29.570Z,9.80
2022-10-12T14:11:56.922Z,11.13
2022-10-12T14:14:32.402Z,9.77
2022-10-12T14:16:59.611Z,8.73
2022-10-12T14:19:49.097Z,9.60
2022-10-12T14:22:23.697Z,8.70
2022-10-12T14:24:54.108Z,8.75
2022-10-12T14:27:28.562Z,10.73
2022-10-12T14:30:07.322Z,10.98
2022-10-12T14:32:40.892Z,10.60
2022-10-12T14:35:23.680Z,11.27
2022-10-12T14:37:52.353Z,8.70
2022-10-12T14:40:39.441Z,9.55
2022-10-12T14:43:11.933Z,10.35
2022-10-12T14:45:38.606Z,10.13
2022-10-12T14:48:08.984Z,12.27
2022-10-12T14:50:35.552Z,9.88
2022-10-12T14:53:04.788Z,10.43
2022-10-12T14:55:33.741Z,12.75
2022-10-12T14:58:00.554Z,13.07
2022-10-12T15:00:27.009Z,13.70
2022-10-12T15:02:53.749Z,15.10
2022-10-12T15:05:23.037Z,15.43
2022-10-12T15:07:50.240Z,12.15
2022-10-12T15:10:18.988Z,13.60
2022-10-12T15:12:46.610Z,9.38
2022-10-12T15:15:28.975Z,8.73
2022-10-12T15:17:58.674Z,12.52
2022-10-12T15:20:26.892Z,9.45
2022-10-12T15:22:54.807Z,13.73
2022-10-12T15:25:39.242Z,13.93
2022-10-12T15:28:05.900Z,11.68
2022-10-12T23:35:55.625Z,27.73
2022-10-12T23:38:22.292Z,22.20
2022-10-12T23:40:48.792Z,20.17
2022-10-12T23:43:15.291Z,20.17
2022-10-12T23:45:43.700Z,22.48
2022-10-12T23:48:10.713Z,20.42
2022-10-12T23:50:38.410Z,22.55
2022-10-12T23:53:06.085Z,21.35
2022-10-12T23:55:33.236Z,20.92
2022-10-12T23:57:59.866Z,22.45
